createdAt,value
2022-10-20T00:01:09.885Z,-145.97
2022-10-20T00:03:39.937Z,-145.97
2022-10-20T00:06:11.323Z,-145.97
2022-10-20T00:08:39.971Z,-145.97
2022-10-20T00:11:09.339Z,-145.97
2022-10-20T00:13:37.484Z,-145.97
2022-10-20T00:16:05.386Z,-145.97
2022-10-20T00:18:33.413Z,-145.97
2022-10-20T00:21:00.607Z,-145.97
2022-10-20T00:23:28.073Z,-145.97
2022-10-20T00:26:06.998Z,-145.97
2022-10-20T00:28:35.107Z,-145.97
2022-10-20T00:31:03.476Z,-145.97
2022-10-20T00:33:31.094Z,-145.97
2022-10-20T00:36:02.849Z,-145.97
2022-10-20T00:38:30.823Z,-145.97
2022-10-20T00:41:00.290Z,-145.97
2022-10-20T00:43:41.412Z,-145.97
2022-10-20T00:46:08.872Z,-145.97
2022-10-20T00:48:36.268Z,-145.97
2022-10-20T00:51:03.982Z,-145.97
2022-10-20T00:53:31.482Z,-145.97
2022-10-20T00:56:00.248Z,-145.97
2022-10-20T00:58:28.856Z,-145.97
2022-10-20T01:00:59.835Z,-145.97
2022-10-20T01:03:49.850Z,-145.97
2022-10-20T01:06:19.245Z,-145.97
2022-10-20T01:08:46.798Z,-145.97
2022-10-20T01:11:19.722Z,-145.97
2022-10-20T01:14:29.268Z,-145.97
2022-10-20T01:17:18.377Z,-145.97
2022-10-20T01:20:07.403Z,-145.97
2022-10-20T01:22:44.700Z,-145.97
2022-10-20T01:25:30.469Z,-145.97
2022-10-20T01:28:23.037Z,-145.97
2022-10-20T01:30:59.318Z,-145.97
2022-10-20T01:33:38.468Z,-145.97
2022-10-20T01:36:25.327Z,-145.97
2022-10-20T01:39:02.122Z,-145.97
2022-10-20T01:41:41.037Z,-145.97
2022-10-20T01:44:12.313Z,-145.97
2022-10-20T01:46:42.887Z,-145.97
2022-10-20T01:49:11.377Z,-145.97
2022-10-20T01:51:38.806Z,-145.97
2022-10-20T01:54:06.398Z,-145.97
2022-10-20T01:56:42.726Z,-145.97
2022-10-20T01:59:47.622Z,-145.97
2022-10-20T02:02:26.348Z,-145.97
2022-10-20T02:05:12.026Z,-145.97
2022-10-20T02:07:42.087Z,-145.97
2022-10-20T02:10:24.453Z,-145.97
2022-10-20T02:12:56.987Z,-145.97
2022-10-20T02:15:31.067Z,-145.97
2022-10-20T02:18:06.907Z,-145.97
2022-10-20T02:20:34.587Z,-145.97
2022-10-20T02:23:04.874Z,-145.97
2022-10-20T02:25:34.222Z,-145.97
2022-10-20T02:28:04.720Z,-145.97
2022-10-20T02:30:32.476Z,-145.97
2022-10-20T02:33:00.047Z,-145.97
2022-10-20T02:35:32.057Z,-145.97
2022-10-20T02:38:00.128Z,-145.97
2022-10-20T02:40:28.117Z,-145.97
2022-10-20T02:42:55.552Z,-145.97
2022-10-20T02:45:25.193Z,-145.97
2022-10-20T02:47:52.669Z,-145.97
2022-10-20T02:50:19.973Z,-145.97
2022-10-20T02:52:47.482Z,-145.97
2022-10-20T02:55:14.629Z,-145.97
2022-10-20T02:57:42.191Z,-145.97
2022-10-20T03:00:10.111Z,-145.97
2022-10-20T03:02:37.643Z,-145.97
2022-10-20T03:05:05.352Z,-145.97
2022-10-20T03:07:32.964Z,-145.97
2022-10-20T03:10:00.262Z,-145.97
2022-10-20T03:12:30.143Z,-145.97
2022-10-20T03:14:59.433Z,-145.97
2022-10-20T03:17:26.878Z,-145.97
2022-10-20T03:19:54.124Z,-145.97
2022-10-20T03:22:21.562Z,-145.97
2022-10-20T03:24:48.876Z,-145.97
2022-10-20T03:27:16.393Z,-145.97
2022-10-20T03:29:43.723Z,-145.97
2022-10-20T03:32:11.287Z,-145.97
2022-10-20T03:34:38.478Z,-145.97
2022-10-20T03:37:05.854Z,-145.97
2022-10-20T03:39:33.102Z,-145.97
2022-10-20T03:42:00.467Z,-145.97
2022-10-20T03:44:27.727Z,-145.97
2022-10-20T03:46:55.163Z,-145.97
2022-10-20T03:49:22.348Z,-145.97
2022-10-20T03:51:49.843Z,-145.97
2022-10-20T03:54:16.953Z,-145.97
2022-10-20T03:56:44.307Z,-145.97
2022-10-20T03:59:12.079Z,-145.97
2022-10-20T04:01:39.512Z,-145.97
2022-10-20T04:04:06.807Z,-145.97
2022-10-20T04:06:34.287Z,-145.97
2022-10-20T04:09:01.595Z,-145.97
2022-10-20T04:11:29.163Z,-145.97
2022-10-20T04:13:56.453Z,-145.97
2022-10-20T04:16:24.532Z,-145.97
2022-10-20T04:18:55.967Z,-145.97
2022-10-20T04:21:25.926Z,-145.97
2022-10-20T04:23:53.143Z,-145.97
2022-10-20T04:26:20.520Z,-145.97
2022-10-20T04:28:47.677Z,-145.97
2022-10-20T04:31:15.113Z,-145.97
2022-10-20T04:33:42.522Z,-145.97
2022-10-20T04:36:12.608Z,-145.97
2022-10-20T04:38:39.927Z,-145.97
2022-10-20T04:41:07.360Z,-145.97
2022-10-20T04:43:34.823Z,-145.97
2022-10-20T04:46:07.071Z,-145.97
2022-10-20T04:48:37.883Z,-145.97
2022-10-20T04:51:10.762Z,-145.97
2022-10-20T04:53:40.528Z,-145.97
2022-10-20T04:56:10.798Z,-145.97
2022-10-20T04:58:37.985Z,-145.97
2022-10-20T05:01:08.633Z,-145.97
2022-10-20T05:03:37.234Z,-145.97
2022-10-20T05:06:17.429Z,-145.97
2022-10-20T05:08:47.204Z,-145.97
2022-10-20T05:11:18.387Z,-145.97
2022-10-20T05:13:45.822Z,-145.97
2022-10-20T05:16:13.907Z,-145.97
2022-10-20T05:18:41.223Z,-145.97
2022-10-20T05:21:14.388Z,-145.97
2022-10-20T05:23:42.725Z,-145.97
2022-10-20T05:26:13.524Z,-145.97
2022-10-20T05:28:44.689Z,-145.97
2022-10-20T05:31:12.793Z,-145.97
2022-10-20T05:33:51.033Z,-145.97
2022-10-20T05:36:21.765Z,-145.97
2022-10-20T05:38:51.003Z,-145.97
2022-10-20T05:41:20.823Z,-145.97
2022-10-20T05:43:50.293Z,-145.97
2022-10-20T05:46:19.303Z,-145.97
2022-10-20T05:48:47.563Z,-145.97
2022-10-20T05:51:18.194Z,-145.97
2022-10-20T05:53:47.286Z,-145.97
2022-10-20T05:56:17.905Z,-145.97
2022-10-20T05:58:45.525Z,-145.97
2022-10-20T06:01:21.292Z,-145.97
2022-10-20T06:03:52.913Z,-145.97
2022-10-20T06:06:22.702Z,-145.97
2022-10-20T06:08:51.135Z,-145.97
2022-10-20T06:11:22.808Z,-145.97
2022-10-20T06:13:52.834Z,-145.97
2022-10-20T06:16:23.614Z,-145.97
2022-10-20T06:18:51.192Z,-145.97
2022-10-20T06:21:21.753Z,-145.97
2022-10-20T06:23:49.655Z,-145.97
2022-10-20T06:26:33.269Z,-145.97
2022-10-20T06:29:03.999Z,-145.97
2022-10-20T06:31:40.717Z,-145.97
2022-10-20T06:34:11.135Z,-145.97
2022-10-20T06:36:40.345Z,-145.97
2022-10-20T06:39:10.767Z,-145.97
2022-10-20T06:41:39.198Z,-145.97
2022-10-20T06:44:10.865Z,-145.97
2022-10-20T06:46:38.468Z,-145.97
2022-10-20T06:49:08.207Z,-145.97
2022-10-20T06:51:35.972Z,-145.97
2022-10-20T06:54:03.960Z,-145.97
2022-10-20T06:56:36.308Z,-145.97
2022-10-20T06:59:07.207Z,-145.97
2022-10-20T07:01:36.977Z,-145.97
2022-10-20T07:04:07.665Z,-145.97
2022-10-20T07:06:38.032Z,-145.97
2022-10-20T07:09:08.666Z,-145.97
2022-10-20T07:11:36.488Z,-145.97
2022-10-20T07:14:06.124Z,-145.97
2022-10-20T07:16:35.202Z,-145.97
2022-10-20T07:19:04.792Z,-145.97
2022-10-20T07:21:36.497Z,-145.97
2022-10-20T07:24:06.489Z,-145.97
2022-10-20T07:26:36.821Z,-145.97
2022-10-20T07:29:05.189Z,-145.97
2022-10-20T07:31:36.103Z,-145.97
2022-10-20T07:34:23.848Z,-145.97
2022-10-20T07:36:52.718Z,-145.97
2022-10-20T07:39:19.888Z,-145.97
2022-10-20T07:41:48.454Z,-145.97
2022-10-20T07:44:16.906Z,-145.97
2022-10-20T07:46:44.749Z,-145.97
2022-10-20T07:51:59.645Z,-145.97
2022-10-20T07:54:27.009Z,-145.97
2022-10-20T07:56:54.596Z,-145.97
2022-10-20T07:59:21.966Z,-145.97
2022-10-20T08:01:51.257Z,-145.97
2022-10-20T08:08:01.439Z,12.18
2022-10-20T08:10:29.013Z,12.72
2022-10-20T08:12:56.287Z,13.27
2022-10-20T08:15:23.772Z,13.75
2022-10-20T08:17:51.024Z,13.70
2022-10-20T08:20:27.225Z,13.92
2022-10-20T08:22:54.647Z,13.97
2022-10-20T08:25:22.152Z,14.27
2022-10-20T08:27:49.468Z,14.87
2022-10-20T08:30:23.973Z,15.40
2022-10-20T08:32:53.023Z,15.67
2022-10-20T08:35:21.655Z,16.01
2022-10-20T08:37:49.269Z,16.41
2022-10-20T08:40:23.252Z,16.04
2022-10-20T08:42:51.657Z,15.94
2022-10-20T08:45:24.645Z,16.44
2022-10-20T08:47:59.310Z,16.74
2022-10-20T08:50:28.698Z,17.11
2022-10-20T08:52:59.547Z,17.42
2022-10-20T08:55:29.425Z,17.16
2022-10-20T08:58:12.556Z,17.11
2022-10-20T09:00:40.890Z,17.58
2022-10-20T09:03:33.714Z,17.78
2022-10-20T09:06:13.677Z,17.92
2022-10-20T09:08:42.178Z,17.91
2022-10-20T09:11:15.900Z,18.02
2022-10-20T09:13:43.318Z,18.28
2022-10-20T09:16:33.377Z,18.72
2022-10-20T09:19:18.428Z,18.88
2022-10-20T09:21:51.035Z,17.96
2022-10-20T09:24:21.296Z,17.25
2022-10-20T09:26:59.985Z,16.75
2022-10-20T09:29:39.105Z,17.00
2022-10-20T09:32:47.019Z,16.83
2022-10-20T09:35:22.344Z,16.29
2022-10-20T09:38:04.285Z,16.34
2022-10-20T09:40:32.414Z,16.67
2022-10-20T09:43:17.455Z,17.27
2022-10-20T09:45:55.013Z,18.06
2022-10-20T09:48:49.523Z,17.93
2022-10-20T09:51:27.908Z,17.74
2022-10-20T09:54:05.173Z,18.00
2022-10-20T09:56:41.463Z,18.34
2022-10-20T09:59:33.025Z,18.59
2022-10-20T10:02:04.258Z,18.82
2022-10-20T10:04:33.968Z,18.04
2022-10-20T10:07:02.673Z,18.18
2022-10-20T10:09:35.333Z,18.18
2022-10-20T10:12:17.486Z,17.72
2022-10-20T10:15:00.682Z,17.88
2022-10-20T10:17:33.661Z,18.16
2022-10-20T10:20:26.406Z,18.07
2022-10-20T10:23:13.866Z,17.27
2022-10-20T10:25:41.466Z,17.02
2022-10-20T10:28:24.698Z,17.36
2022-10-20T10:31:05.968Z,17.19
2022-10-20T10:33:35.830Z,17.03
2022-10-20T10:36:11.754Z,17.04
2022-10-20T10:38:39.096Z,16.55
2022-10-20T10:41:25.879Z,16.26
2022-10-20T10:44:07.853Z,15.70
2022-10-20T10:46:47.977Z,15.32
2022-10-20T10:49:54.959Z,15.08
2022-10-20T10:52:51.645Z,15.43
2022-10-20T10:55:47.812Z,16.03
2022-10-20T10:58:19.308Z,16.14
2022-10-20T11:00:52.834Z,16.38
2022-10-20T11:03:37.682Z,16.81
2022-10-20T11:06:30.509Z,16.58
2022-10-20T11:09:13.322Z,16.69
2022-10-20T11:11:48.033Z,17.13
2022-10-20T11:14:39.134Z,17.27
2022-10-20T11:17:12.109Z,17.30
2022-10-20T11:20:07.495Z,17.66
2022-10-20T11:22:50.598Z,17.93
2022-10-20T11:25:33.359Z,17.72
2022-10-20T11:28:00.907Z,17.62
2022-10-20T11:30:30.564Z,17.83
2022-10-20T11:33:00.635Z,18.39
2022-10-20T11:35:52.153Z,18.69
2022-10-20T11:38:37.695Z,18.73
2022-10-20T11:41:31.326Z,18.58
2022-10-20T11:44:05.216Z,18.61
2022-10-20T11:46:41.812Z,18.88
2022-10-20T11:49:12.417Z,19.36
2022-10-20T11:52:12.075Z,20.34
2022-10-20T11:54:58.036Z,20.55
2022-10-20T11:57:43.599Z,20.89
2022-10-20T12:00:17.216Z,21.27
2022-10-20T12:03:21.994Z,21.48
2022-10-20T12:06:27.235Z,21.65
2022-10-20T12:09:19.040Z,21.29
2022-10-20T12:11:57.606Z,21.45
2022-10-20T12:14:33.001Z,21.40
2022-10-20T12:17:12.510Z,21.35
2022-10-20T12:19:40.402Z,20.90
2022-10-20T12:22:30.483Z,21.16
2022-10-20T12:24:57.863Z,21.36
2022-10-20T12:27:30.261Z,21.59
2022-10-20T12:30:02.248Z,21.79
2022-10-20T12:32:29.519Z,21.82
2022-10-20T12:35:00.369Z,21.87
2022-10-20T12:37:31.174Z,21.60
2022-10-20T12:40:07.553Z,21.14
2022-10-20T12:42:48.343Z,20.60
2022-10-20T12:45:18.750Z,20.30
2022-10-20T12:47:53.375Z,20.07
2022-10-20T12:50:44.917Z,19.78
2022-10-20T12:53:21.769Z,18.58
2022-10-20T12:56:03.303Z,17.97
2022-10-20T12:58:34.665Z,17.13
2022-10-20T13:01:07.270Z,16.64
2022-10-20T13:03:43.883Z,16.17
2022-10-20T13:06:23.375Z,15.83
2022-10-20T13:09:03.167Z,15.58
2022-10-20T13:11:39.658Z,15.26
2022-10-20T13:14:13.382Z,15.00
2022-10-20T13:16:51.338Z,14.76
2022-10-20T13:19:30.183Z,14.60
2022-10-20T13:21:58.028Z,14.30
2022-10-20T13:24:34.399Z,14.13
2022-10-20T13:27:09.215Z,14.03
2022-10-20T13:29:40.308Z,13.67
2022-10-20T13:32:32.068Z,13.54
2022-10-20T13:35:53.552Z,13.55
2022-10-20T13:38:39.383Z,13.53
2022-10-20T13:41:28.503Z,13.55
2022-10-20T13:44:13.358Z,13.42
2022-10-20T13:47:00.085Z,13.22
2022-10-20T13:49:30.548Z,13.05
2022-10-20T13:52:03.293Z,12.90
2022-10-20T13:54:34.486Z,12.91
2022-10-20T13:57:02.958Z,12.87
2022-10-20T13:59:30.867Z,12.89
2022-10-20T14:02:03.993Z,12.98
2022-10-20T14:04:34.555Z,12.99
2022-10-20T14:07:13.564Z,12.85
2022-10-20T14:09:45.376Z,12.90
2022-10-20T14:12:25.771Z,12.99
2022-10-20T14:15:01.447Z,12.98
2022-10-20T14:17:29.887Z,13.08
2022-10-20T14:20:19.347Z,13.19
2022-10-20T14:22:48.379Z,13.19
2022-10-20T14:25:16.515Z,13.11
2022-10-20T14:27:45.523Z,13.32
2022-10-20T14:30:16.843Z,13.54
2022-10-20T14:32:46.296Z,13.66
2022-10-20T14:35:18.859Z,13.85
2022-10-20T14:37:52.950Z,13.78
2022-10-20T14:40:31.636Z,13.85
2022-10-20T14:43:06.638Z,13.87
2022-10-20T14:45:34.583Z,13.91
2022-10-20T14:48:02.566Z,13.76
2022-10-20T14:50:41.070Z,13.55
2022-10-20T14:53:25.399Z,13.62
2022-10-20T14:55:56.034Z,13.71
2022-10-20T14:58:30.748Z,13.74
2022-10-20T15:01:26.032Z,13.74
2022-10-20T15:04:17.107Z,13.66
2022-10-20T15:06:44.848Z,13.49
2022-10-20T15:09:26.093Z,13.22
2022-10-20T15:11:53.628Z,13.08
2022-10-20T15:14:21.725Z,12.90
2022-10-20T15:16:50.145Z,12.55
2022-10-20T15:19:25.965Z,12.41
2022-10-20T15:22:02.976Z,12.16
2022-10-20T15:24:30.706Z,11.82
2022-10-20T15:26:59.368Z,11.42
2022-10-20T15:29:28.037Z,11.08
2022-10-20T15:31:55.898Z,10.71
2022-10-20T15:34:23.616Z,10.36
2022-10-20T15:36:51.269Z,10.18
2022-10-20T15:39:19.005Z,9.88
2022-10-20T15:41:49.039Z,9.73
2022-10-20T15:44:24.034Z,9.57
2022-10-20T15:46:55.590Z,9.42
2022-10-20T15:49:24.031Z,9.25
2022-10-20T15:51:51.896Z,9.10
2022-10-20T15:54:21.567Z,8.98
2022-10-20T15:56:49.128Z,8.77
2022-10-20T15:59:17.102Z,8.62
2022-10-20T16:01:47.104Z,8.49
2022-10-20T16:04:23.533Z,8.33
2022-10-20T16:06:57.817Z,8.21
2022-10-20T16:09:28.054Z,8.10
2022-10-20T16:11:55.385Z,7.99
2022-10-20T16:14:23.071Z,7.90
2022-10-20T16:16:50.405Z,7.83
2022-10-20T16:19:17.936Z,7.53
2022-10-20T16:21:45.236Z,7.53
2022-10-20T16:24:12.715Z,7.34
2022-10-20T16:26:40.368Z,7.14
2022-10-20T16:29:07.893Z,6.87
2022-10-20T16:31:35.775Z,6.79
2022-10-20T16:34:03.617Z,6.62
2022-10-20T16:36:35.076Z,6.57
2022-10-20T16:39:02.814Z,6.49
2022-10-20T16:41:30.290Z,6.37
2022-10-20T16:44:01.410Z,6.20
2022-10-20T16:46:29.059Z,5.86
2022-10-20T16:48:57.500Z,5.78
2022-10-20T16:51:25.368Z,5.74
2022-10-20T16:54:00.801Z,5.55
2022-10-20T16:56:32.885Z,5.43
2022-10-20T16:59:04.452Z,5.28
2022-10-20T17:01:32.178Z,5.14
2022-10-20T17:03:59.738Z,5.03
2022-10-20T17:06:29.765Z,4.80
2022-10-20T17:08:59.481Z,4.76
2022-10-20T17:11:29.433Z,4.62
2022-10-20T17:13:57.944Z,4.45
2022-10-20T17:16:32.225Z,4.40
2022-10-20T17:19:01.927Z,4.30
2022-10-20T17:21:31.565Z,4.27
2022-10-20T17:23:59.677Z,4.20
2022-10-20T17:26:30.719Z,4.12
2022-10-20T17:29:00.370Z,4.01
2022-10-20T17:31:31.412Z,3.93
2022-10-20T17:33:59.862Z,3.82
2022-10-20T17:36:30.560Z,3.63
2022-10-20T17:39:05.784Z,3.49
2022-10-20T17:41:33.661Z,3.37
2022-10-20T17:44:05.278Z,3.32
2022-10-20T17:46:33.635Z,3.37
2022-10-20T17:49:04.047Z,3.33
2022-10-20T17:51:34.467Z,3.28
2022-10-20T17:54:03.601Z,3.22
2022-10-20T17:56:36.218Z,3.26
2022-10-20T17:59:06.680Z,3.17
2022-10-20T18:01:41.359Z,3.15
2022-10-20T18:04:12.694Z,3.16
2022-10-20T18:06:40.803Z,3.05
2022-10-20T18:09:11.436Z,2.99
2022-10-20T18:11:40.868Z,2.94
2022-10-20T18:14:08.267Z,2.83
2022-10-20T18:16:37.488Z,2.90
2022-10-20T18:19:05.653Z,2.81
2022-10-20T18:21:33.308Z,2.92
2022-10-20T18:24:03.447Z,2.93
2022-10-20T18:26:34.047Z,2.96
2022-10-20T18:29:03.063Z,2.99
2022-10-20T18:31:32.573Z,2.80
2022-10-20T18:34:05.759Z,2.89
2022-10-20T18:36:37.950Z,2.85
2022-10-20T18:39:08.465Z,2.73
2022-10-20T18:41:38.819Z,2.80
2022-10-20T18:44:11.028Z,2.72
2022-10-20T18:46:42.058Z,2.62
2022-10-20T18:49:12.860Z,2.59
2022-10-20T18:51:44.914Z,2.40
2022-10-20T18:54:12.938Z,2.50
2022-10-20T18:56:40.254Z,2.39
2022-10-20T18:59:09.895Z,2.43
2022-10-20T19:01:39.274Z,2.39
2022-10-20T19:04:09.203Z,2.32
2022-10-20T19:06:44.409Z,2.29
2022-10-20T19:09:18.609Z,2.29
2022-10-20T19:11:47.556Z,2.26
2022-10-20T19:14:16.100Z,2.23
2022-10-20T19:16:47.207Z,2.13
2022-10-20T19:19:15.495Z,2.26
2022-10-20T19:21:45.206Z,2.24
2022-10-20T19:24:19.959Z,2.22
2022-10-20T19:27:02.142Z,2.15
2022-10-20T19:29:42.809Z,2.12
2022-10-20T19:32:11.686Z,2.05
2022-10-20T19:34:42.262Z,2.09
2022-10-20T19:37:09.969Z,2.03
2022-10-20T19:39:41.004Z,2.06
2022-10-20T19:42:11.548Z,1.99
2022-10-20T19:44:40.090Z,1.92
2022-10-20T19:47:08.537Z,1.91
2022-10-20T19:49:36.328Z,1.90
2022-10-20T19:52:04.604Z,1.89
2022-10-20T19:54:32.496Z,1.85
2022-10-20T19:57:00.184Z,1.86
2022-10-20T19:59:28.186Z,1.85
2022-10-20T20:01:55.869Z,1.83
2022-10-20T20:04:23.695Z,1.81
2022-10-20T20:06:51.579Z,1.78
2022-10-20T20:09:19.299Z,1.79
2022-10-20T20:11:49.295Z,1.83
2022-10-20T20:14:19.435Z,1.83
2022-10-20T20:16:51.028Z,1.83
2022-10-20T20:19:19.855Z,1.74
2022-10-20T20:21:47.514Z,1.76
2022-10-20T20:24:15.187Z,1.68
2022-10-20T20:26:44.663Z,1.66
2022-10-20T20:29:12.415Z,1.64
2022-10-20T20:31:39.766Z,1.55
2022-10-20T20:34:07.431Z,1.35
2022-10-20T20:36:39.996Z,1.47
2022-10-20T20:39:08.225Z,1.45
2022-10-20T20:41:35.624Z,1.36
2022-10-20T20:44:07.889Z,1.23
2022-10-20T20:46:36.735Z,1.15
2022-10-20T20:49:04.766Z,1.01
2022-10-20T20:51:34.955Z,0.99
2022-10-20T20:54:04.121Z,0.95
2022-10-20T20:56:31.968Z,0.81
2022-10-20T20:58:59.876Z,0.66
2022-10-20T21:01:31.402Z,0.56
2022-10-20T21:04:01.558Z,0.58
2022-10-20T21:06:33.988Z,0.51
2022-10-20T21:09:11.478Z,0.50
2022-10-20T21:11:39.025Z,0.44
2022-10-20T21:14:06.678Z,0.37
2022-10-20T21:16:36.986Z,0.39
2022-10-20T21:19:08.797Z,0.31
2022-10-20T21:21:45.075Z,0.29
2022-10-20T21:24:14.404Z,0.21
2022-10-20T21:26:41.678Z,0.22
2022-10-20T21:29:09.439Z,0.22
2022-10-20T21:31:36.892Z,0.14
2022-10-20T21:34:05.655Z,0.08
2022-10-20T21:36:35.527Z,0.03
2022-10-20T21:39:05.575Z,-0.01
2022-10-20T21:41:34.987Z,-0.08
2022-10-20T21:44:06.005Z,-0.11
2022-10-20T21:46:47.850Z,-0.20
2022-10-20T21:49:19.608Z,-0.24
2022-10-20T21:51:55.575Z,-0.15
2022-10-20T21:54:25.314Z,-0.20
2022-10-20T21:56:52.866Z,-0.25
2022-10-20T21:59:22.574Z,-0.32
2022-10-20T22:01:50.965Z,-0.39
2022-10-20T22:04:20.623Z,-0.45
2022-10-20T22:06:48.204Z,-0.64
2022-10-20T22:09:16.735Z,-0.66
2022-10-20T22:11:49.890Z,-0.63
2022-10-20T22:14:19.758Z,-0.66
2022-10-20T22:16:47.039Z,-0.70
2022-10-20T22:19:18.395Z,-0.75
2022-10-20T22:21:48.242Z,-0.81
2022-10-20T22:24:18.947Z,-0.76
2022-10-20T22:26:47.046Z,-0.79
2022-10-20T22:29:14.676Z,-0.80
2022-10-20T22:31:42.056Z,-0.76
2022-10-20T22:34:12.354Z,-0.80
2022-10-20T22:36:40.970Z,-0.73
2022-10-20T22:39:09.125Z,-0.82
2022-10-20T22:41:36.745Z,-0.99
2022-10-20T22:44:05.069Z,-0.95
2022-10-20T22:46:32.808Z,-0.92
2022-10-20T22:49:00.374Z,-0.96
2022-10-20T22:51:28.668Z,-1.09
2022-10-20T22:53:56.242Z,-1.20
2022-10-20T22:56:25.712Z,-1.18
2022-10-20T22:58:54.517Z,-1.48
2022-10-20T23:01:23.753Z,-1.47
2022-10-20T23:03:51.409Z,-1.46
2022-10-20T23:06:21.885Z,-1.58
2022-10-20T23:08:52.257Z,-1.46
2022-10-20T23:11:19.948Z,-1.48
2022-10-20T23:13:48.309Z,-1.56
2022-10-20T23:16:15.781Z,-1.59
2022-10-20T23:18:43.482Z,-1.73
2022-10-20T23:21:13.112Z,-1.73
2022-10-20T23:23:41.487Z,-1.73
2022-10-20T23:26:09.030Z,-1.78
2022-10-20T23:28:37.768Z,-1.76
2022-10-20T23:31:06.113Z,-1.76
2022-10-20T23:33:33.708Z,-1.80
2022-10-20T23:36:01.013Z,-1.79
2022-10-20T23:38:28.469Z,-1.70
2022-10-20T23:40:55.857Z,-1.66
2022-10-20T23:43:23.643Z,-1.64
2022-10-20T23:45:50.955Z,-1.58
2022-10-20T23:48:18.579Z,-1.51
2022-10-20T23:50:45.829Z,-1.47
2022-10-20T23:53:13.682Z,-1.46
2022-10-20T23:55:41.145Z,-1.44
2022-10-20T23:58:08.703Z,-1.60
